Time;durP1;ratioP1;P1;durP2;ratioP2;P2;SDS_P1;SDS_P2;PMS_P1;PMS_P2;Temp;Humidity;BMP_temperature;BMP_pressure;BME280_temperature;BME280_humidity;BME280_pressure;Samples;Min_cycle;Max_cycle;Signal;HPM_P1;HPM_P2
2021/04/24 00:02:11;;;;;;;11.63;3.92;;;;;;;7.19;60.75;97199.19;4937749;28;20500;-71
2021/04/24 00:04:39;;;;;;;8.52;3.83;;;;;;;7.17;60.73;97195.81;4938577;28;20223;-72
2021/04/24 00:07:09;;;;;;;16.42;3.95;;;;;;;7.05;60.63;97183.34;4945619;28;20199;-73
2021/04/24 00:09:37;;;;;;;8.15;3.60;;;;;;;7.04;61.09;97194.59;4939837;28;20551;-75
2021/04/24 00:12:05;;;;;;;8.07;3.80;;;;;;;7.02;61.64;97199.00;4953262;28;20642;-71
2021/04/24 00:14:33;;;;;;;8.90;4.38;;;;;;;6.97;61.65;97191.41;4942163;28;20215;-72
2021/04/24 00:17:01;;;;;;;9.75;3.92;;;;;;;6.84;61.83;97194.53;4939754;28;20688;-73
2021/04/24 00:19:29;;;;;;;8.40;3.40;;;;;;;6.87;62.07;97203.03;4942785;28;20219;-72
2021/04/24 00:21:56;;;;;;;6.68;3.70;;;;;;;6.77;62.17;97193.09;4943107;28;20272;-71
2021/04/24 00:24:23;;;;;;;6.93;3.55;;;;;;;6.77;62.36;97201.66;4946599;28;20553;-72
2021/04/24 00:26:50;;;;;;;9.45;3.60;;;;;;;6.77;62.46;97201.66;4937361;28;20688;-71
2021/04/24 00:29:16;;;;;;;15.00;4.20;;;;;;;6.75;62.58;97198.31;4937403;28;20293;-71
2021/04/24 00:31:43;;;;;;;20.92;3.55;;;;;;;6.72;62.25;97190.66;4950138;28;20188;-71
2021/04/24 00:34:11;;;;;;;4.10;2.90;;;;;;;6.64;62.74;97194.44;4948362;28;20517;-71
2021/04/24 00:36:38;;;;;;;10.30;3.97;;;;;;;6.53;63.31;97191.38;4951315;28;20194;-71
2021/04/24 00:39:06;;;;;;;10.98;4.15;;;;;;;6.45;63.51;97180.47;4949736;28;20218;-71
2021/04/24 00:41:33;;;;;;;6.57;3.63;;;;;;;6.53;63.21;97186.22;4947782;28;20518;-71
2021/04/24 00:44:00;;;;;;;6.40;3.63;;;;;;;6.46;63.27;97175.25;4933487;28;20442;-71
2021/04/24 00:46:27;;;;;;;9.23;4.10;;;;;;;6.46;63.43;97180.44;4938801;28;20700;-71
2021/04/24 00:48:54;;;;;;;11.02;3.65;;;;;;;6.39;63.83;97181.56;4920991;28;20239;-71
2021/04/24 00:51:22;;;;;;;9.35;4.13;;;;;;;6.28;63.45;97180.25;4936579;28;20522;-71
2021/04/24 00:53:49;;;;;;;10.63;4.13;;;;;;;6.22;64.10;97172.72;4938830;28;20226;-71
2021/04/24 00:56:16;;;;;;;7.47;3.50;;;;;;;6.30;64.14;97174.13;4943266;28;20187;-71
2021/04/24 00:58:43;;;;;;;10.85;4.10;;;;;;;6.32;63.86;97176.66;4948014;28;20231;-71
2021/04/24 01:01:10;;;;;;;8.38;3.65;;;;;;;6.36;63.96;97175.66;4930268;28;20214;-71
2021/04/24 01:03:38;;;;;;;12.43;4.05;;;;;;;6.30;64.27;97175.84;4934697;28;20682;-70
2021/04/24 01:06:05;;;;;;;7.55;4.10;;;;;;;6.29;64.18;97164.69;4942582;28;20242;-71
2021/04/24 01:08:33;;;;;;;10.80;4.30;;;;;;;6.33;64.59;97165.44;4938614;28;20596;-71
2021/04/24 01:10:59;;;;;;;12.40;4.22;;;;;;;6.24;64.19;97163.16;4951519;28;20716;-71
2021/04/24 01:13:26;;;;;;;17.77;4.70;;;;;;;6.13;64.43;97155.78;4943538;28;20615;-74
2021/04/24 01:15:53;;;;;;;13.48;4.60;;;;;;;6.14;64.87;97156.63;4941807;28;20207;-71
2021/04/24 01:18:21;;;;;;;12.05;4.18;;;;;;;6.16;65.08;97160.00;4947128;28;20727;-72
2021/04/24 01:20:49;;;;;;;17.27;5.03;;;;;;;6.17;64.99;97164.28;4937888;28;20253;-72
2021/04/24 01:23:21;;;;;;;10.75;4.03;;;;;;;6.09;65.15;97153.38;4934328;28;20606;-71
2021/04/24 01:25:48;;;;;;;10.38;4.45;;;;;;;6.06;64.81;97156.91;4942209;28;20202;-71
2021/04/24 01:28:15;;;;;;;8.45;3.83;;;;;;;6.00;64.62;97154.56;4938766;28;20661;-71
2021/04/24 01:30:45;;;;;;;8.82;3.88;;;;;;;5.97;65.51;97157.22;4944697;28;20606;-71
2021/04/24 01:33:14;;;;;;;10.55;3.85;;;;;;;5.93;65.27;97162.56;4942041;28;20669;-71
2021/04/24 01:35:43;;;;;;;12.57;4.25;;;;;;;5.88;65.94;97157.56;4942002;28;20588;-72
2021/04/24 01:38:11;;;;;;;15.98;3.97;;;;;;;5.78;66.27;97147.56;4943342;28;20277;-71
2021/04/24 01:40:39;;;;;;;9.20;4.30;;;;;;;5.79;66.46;97163.03;4937371;28;20623;-71
2021/04/24 01:43:08;;;;;;;7.65;3.63;;;;;;;5.77;66.37;97157.06;4945250;28;20242;-71
2021/04/24 01:45:35;;;;;;;11.45;4.25;;;;;;;5.79;66.06;97154.41;4943868;28;20495;-71
2021/04/24 01:48:06;;;;;;;9.93;4.10;;;;;;;5.80;66.06;97148.38;4938893;28;20827;-71
2021/04/24 01:50:35;;;;;;;10.82;3.95;;;;;;;5.78;66.21;97139.81;4943200;28;20206;-71
2021/04/24 01:53:04;;;;;;;7.97;3.58;;;;;;;5.83;65.73;97145.69;4947093;28;20330;-72
2021/04/24 01:55:34;;;;;;;12.77;3.70;;;;;;;5.82;65.81;97141.44;4943042;28;20242;-72
2021/04/24 01:58:06;;;;;;;11.32;4.35;;;;;;;5.83;65.99;97143.13;4942734;28;20639;-72
2021/04/24 02:00:36;;;;;;;11.02;4.63;;;;;;;5.78;65.89;97138.09;4945991;28;20277;-70
2021/04/24 02:03:05;;;;;;;7.90;3.85;;;;;;;5.71;65.91;97140.91;4936179;28;20709;-71
2021/04/24 02:05:33;;;;;;;9.98;3.58;;;;;;;5.62;66.81;97136.06;4939945;28;20235;-70
2021/04/24 02:08:04;;;;;;;12.25;4.47;;;;;;;5.62;66.53;97146.41;4935766;28;20560;-72
2021/04/24 02:10:31;;;;;;;14.07;4.43;;;;;;;5.56;66.64;97141.44;4948189;28;20335;-70
2021/04/24 02:13:00;;;;;;;11.38;4.40;;;;;;;5.54;66.66;97132.91;4937979;28;20186;-70
2021/04/24 02:15:29;;;;;;;11.50;4.63;;;;;;;5.61;66.88;97135.22;4948148;28;20218;-70
2021/04/24 02:17:56;;;;;;;19.58;4.85;;;;;;;5.56;66.48;97129.38;4943223;28;20191;-71
2021/04/24 02:20:23;;;;;;;9.90;3.70;;;;;;;5.34;67.00;97128.41;4945036;28;20749;-70
2021/04/24 02:22:50;;;;;;;9.10;4.03;;;;;;;5.43;67.39;97129.84;4940932;28;20219;-69
2021/04/24 02:25:18;;;;;;;11.60;4.38;;;;;;;5.38;67.39;97134.31;4946054;28;20289;-69
2021/04/24 02:27:45;;;;;;;11.43;4.68;;;;;;;5.28;67.55;97138.94;4943150;28;20254;-70
2021/04/24 02:30:16;;;;;;;7.60;3.70;;;;;;;5.29;67.82;97137.19;4946199;28;20743;-71
2021/04/24 02:32:46;;;;;;;10.38;3.72;;;;;;;5.19;67.70;97136.66;4944898;28;20194;-71
2021/04/24 02:35:17;;;;;;;12.43;3.80;;;;;;;5.09;68.63;97135.25;4944595;28;20663;-72
2021/04/24 02:37:44;;;;;;;9.85;4.30;;;;;;;5.11;69.07;97140.38;4950186;28;20199;-70
2021/04/24 02:40:14;;;;;;;10.32;3.85;;;;;;;5.12;68.66;97140.34;4952024;28;20233;-70
2021/04/24 02:42:42;;;;;;;11.15;4.13;;;;;;;5.07;68.42;97138.75;4941871;28;20203;-71
2021/04/24 02:45:13;;;;;;;14.20;3.80;;;;;;;4.99;68.90;97133.88;4945065;28;20734;-70
2021/04/24 02:47:40;;;;;;;8.40;3.53;;;;;;;5.09;68.84;97121.53;4937319;28;20563;-70
2021/04/24 02:50:11;;;;;;;11.85;5.03;;;;;;;5.17;68.65;97133.25;4947218;28;20227;-71
2021/04/24 02:52:38;;;;;;;8.45;3.45;;;;;;;5.24;68.50;97124.44;4948170;28;20203;-69
2021/04/24 02:55:07;;;;;;;8.73;4.95;;;;;;;5.22;68.33;97122.78;4943318;28;20257;-70
2021/04/24 02:57:34;;;;;;;13.15;3.83;;;;;;;5.15;68.16;97137.63;4944082;28;20500;-71
2021/04/24 03:00:02;;;;;;;6.63;3.67;;;;;;;5.16;67.93;97125.59;4944435;28;20226;-70
2021/04/24 03:02:29;;;;;;;9.18;3.92;;;;;;;5.09;67.68;97135.25;4938760;28;20274;-70
2021/04/24 03:04:55;;;;;;;6.78;4.03;;;;;;;4.87;68.47;97112.78;4939438;28;20709;-72
2021/04/24 03:07:23;;;;;;;7.72;4.05;;;;;;;4.78;68.86;97115.63;4945817;28;20195;-70
2021/04/24 03:09:50;;;;;;;12.35;3.78;;;;;;;4.84;68.41;97128.34;4938599;28;20230;-70
2021/04/24 03:12:17;;;;;;;9.82;4.20;;;;;;;4.84;68.67;97136.06;4927686;28;20256;-70
2021/04/24 03:14:44;;;;;;;8.25;4.25;;;;;;;4.65;69.03;97133.22;4945650;28;20230;-70
2021/04/24 03:17:11;;;;;;;9.25;3.80;;;;;;;4.56;69.73;97132.63;4943034;28;20191;-70
2021/04/24 03:19:38;;;;;;;5.40;3.50;;;;;;;4.56;69.54;97135.22;4942169;28;20753;-70
2021/04/24 03:22:05;;;;;;;9.40;3.65;;;;;;;4.49;70.18;97133.72;4943343;28;20208;-71
2021/04/24 03:24:33;;;;;;;10.77;3.60;;;;;;;4.47;70.33;97122.63;4942614;28;20218;-69
2021/04/24 03:26:59;;;;;;;9.43;4.55;;;;;;;4.57;69.50;97129.19;4945802;28;20187;-69
2021/04/24 03:29:27;;;;;;;11.52;4.18;;;;;;;4.56;69.84;97123.19;4950372;28;20733;-71
2021/04/24 03:31:53;;;;;;;10.95;3.53;;;;;;;4.56;69.71;97122.34;4944412;28;20199;-72
2021/04/24 03:34:21;;;;;;;9.25;3.75;;;;;;;4.53;69.82;97122.44;4939345;28;20491;-71
2021/04/24 03:36:48;;;;;;;11.90;4.15;;;;;;;4.59;70.22;97114.53;4939268;28;20670;-71
2021/04/24 03:39:15;;;;;;;9.85;4.50;;;;;;;4.68;69.87;97112.50;4941495;28;20748;-71
2021/04/24 03:41:43;;;;;;;12.60;5.03;;;;;;;4.70;69.43;97109.88;4939601;28;20631;-71
2021/04/24 03:44:10;;;;;;;13.30;4.75;;;;;;;4.64;69.64;97113.50;4938288;28;20226;-73
2021/04/24 03:46:37;;;;;;;18.08;4.25;;;;;;;4.52;69.86;97105.28;4937873;28;20540;-70
2021/04/24 03:49:04;;;;;;;7.82;3.72;;;;;;;4.59;69.58;97111.94;4938364;28;20526;-71
2021/04/24 03:51:31;;;;;;;11.05;4.53;;;;;;;4.39;70.12;97115.13;4944450;28;20650;-70
2021/04/24 03:53:58;;;;;;;7.75;4.03;;;;;;;4.39;70.27;97114.28;4946715;28;20218;-71
2021/04/24 03:56:25;;;;;;;13.10;4.60;;;;;;;4.42;70.79;97116.75;4943169;28;20199;-71
2021/04/24 03:58:53;;;;;;;7.55;4.43;;;;;;;4.33;70.49;97119.59;4944736;28;20231;-71
2021/04/24 04:01:20;;;;;;;9.35;4.20;;;;;;;4.32;71.24;97123.94;4938747;28;20702;-71
2021/04/24 04:03:47;;;;;;;13.32;3.78;;;;;;;4.37;71.13;97121.22;4937068;28;20223;-71
2021/04/24 04:06:14;;;;;;;8.57;3.97;;;;;;;4.36;71.11;97122.94;4943061;28;20727;-71
2021/04/24 04:08:43;;;;;;;14.32;4.18;;;;;;;4.32;71.35;97131.66;4938999;28;20664;-72
2021/04/24 04:11:10;;;;;;;10.07;4.00;;;;;;;4.32;71.16;97115.34;4938725;28;20191;-70
2021/04/24 04:13:37;;;;;;;12.43;5.00;;;;;;;4.36;71.17;97124.69;4946281;28;20839;-73
2021/04/24 04:16:05;;;;;;;16.63;4.80;;;;;;;4.31;71.06;97121.38;4942842;28;20242;-72
2021/04/24 04:18:35;;;;;;;11.60;4.47;;;;;;;4.24;71.15;97125.03;4942192;28;20222;-72
2021/04/24 04:21:04;;;;;;;10.40;4.90;;;;;;;4.32;71.41;97128.22;4944118;28;20186;-72
2021/04/24 04:23:31;;;;;;;11.63;5.38;;;;;;;4.35;71.25;97128.97;4947018;28;20697;-73
2021/04/24 04:25:59;;;;;;;9.38;4.47;;;;;;;4.31;70.82;97139.41;4950326;28;20731;-72
2021/04/24 04:28:26;;;;;;;6.82;4.15;;;;;;;4.32;71.06;97138.53;4943950;28;20697;-71
2021/04/24 04:30:55;;;;;;;13.65;4.80;;;;;;;4.31;70.85;97140.28;4943942;28;20187;-71
2021/04/24 04:33:24;;;;;;;12.93;4.82;;;;;;;4.29;71.06;97139.44;4941757;28;20592;-71
2021/04/24 04:35:52;;;;;;;11.20;3.90;;;;;;;4.23;71.25;97146.53;4939292;28;20215;-70
2021/04/24 04:38:19;;;;;;;10.75;4.00;;;;;;;4.26;71.28;97144.72;4936951;28;20269;-70
2021/04/24 04:40:46;;;;;;;11.75;4.88;;;;;;;4.26;71.62;97151.56;4946867;28;20600;-70
2021/04/24 04:43:14;;;;;;;12.45;4.60;;;;;;;4.18;71.88;97148.38;4939639;28;20249;-70
2021/04/24 04:45:43;;;;;;;11.90;4.68;;;;;;;4.24;71.85;97150.78;4944077;28;20597;-70
2021/04/24 04:48:10;;;;;;;13.15;4.55;;;;;;;4.29;71.83;97151.50;4940619;28;20210;-72
2021/04/24 04:50:40;;;;;;;15.30;4.68;;;;;;;4.14;72.00;97139.06;4941601;28;20245;-70
2021/04/24 04:53:07;;;;;;;11.38;4.60;;;;;;;4.25;72.24;97153.31;4938718;28;20195;-70
2021/04/24 04:55:35;;;;;;;11.23;4.20;;;;;;;4.30;71.77;97151.44;4940802;28;20553;-71
2021/04/24 04:58:02;;;;;;;8.73;3.80;;;;;;;4.23;71.68;97156.81;4942648;28;20187;-70
2021/04/24 05:00:29;;;;;;;8.10;3.85;;;;;;;4.12;71.41;97151.13;4943912;28;20230;-71
2021/04/24 05:02:57;;;;;;;10.55;4.10;;;;;;;4.32;71.07;97159.13;4936927;28;20737;-71
2021/04/24 05:05:24;;;;;;;11.70;4.63;;;;;;;4.34;71.30;97152.19;4943596;28;20673;-70
2021/04/24 05:07:52;;;;;;;12.43;4.75;;;;;;;4.37;71.33;97157.28;4946227;28;20201;-70
2021/04/24 05:10:23;;;;;;;10.98;5.40;;;;;;;4.43;72.07;97159.69;4939505;28;20226;-71
2021/04/24 05:12:50;;;;;;;8.48;4.50;;;;;;;4.54;71.91;97155.91;4943736;28;20616;-69
2021/04/24 05:15:18;;;;;;;8.82;4.22;;;;;;;4.66;71.74;97152.13;4946551;28;20232;-70
2021/04/24 05:17:45;;;;;;;7.28;4.00;;;;;;;4.61;71.39;97159.13;4938914;28;20176;-71
2021/04/24 05:20:14;;;;;;;15.60;4.28;;;;;;;4.70;70.83;97161.44;4924096;28;20239;-70
2021/04/24 05:22:44;;;;;;;9.93;4.35;;;;;;;4.78;70.07;97157.75;4942659;28;20618;-71
2021/04/24 05:25:13;;;;;;;6.40;3.35;;;;;;;4.92;69.73;97158.16;4940218;28;20288;-70
2021/04/24 05:27:43;;;;;;;12.23;4.65;;;;;;;4.94;69.30;97160.69;4940713;28;20742;-72
2021/04/24 05:30:12;;;;;;;13.38;4.55;;;;;;;5.03;69.35;97165.56;4936743;28;20628;-70
2021/04/24 05:32:39;;;;;;;12.20;5.30;;;;;;;5.03;69.47;97168.16;4925053;28;20252;-70
2021/04/24 05:35:09;;;;;;;10.52;4.80;;;;;;;5.03;69.32;97165.56;4942283;28;20237;-71
2021/04/24 05:37:36;;;;;;;28.90;5.57;;;;;;;5.20;68.63;97163.28;4941484;28;20522;-70
2021/04/24 05:40:05;;;;;;;15.70;4.88;;;;;;;5.20;69.10;97158.13;4943844;28;20226;-72
2021/04/24 05:42:33;;;;;;;10.88;5.38;;;;;;;5.38;68.74;97158.38;4947429;28;20198;-72
2021/04/24 05:45:10;;;;;;;7.78;4.35;;;;;;;5.52;68.37;97160.53;4911486;28;20234;-69
2021/04/24 05:47:37;;;;;;;19.88;5.15;;;;;;;5.66;67.92;97160.88;4945286;28;20840;-72
2021/04/24 05:50:05;;;;;;;10.32;5.18;;;;;;;5.78;68.23;97157.88;4934897;28;20219;-70
2021/04/24 05:52:33;;;;;;;9.13;4.60;;;;;;;5.91;68.29;97156.59;4942223;28;20598;-70
2021/04/24 05:55:00;;;;;;;12.00;5.32;;;;;;;6.16;68.04;97154.84;4947251;28;20918;-72
2021/04/24 05:57:27;;;;;;;9.20;5.07;;;;;;;6.44;67.15;97156.38;4943368;28;20207;-70
2021/04/24 05:59:54;;;;;;;11.77;5.88;;;;;;;6.77;66.42;97162.03;4946399;28;20709;-69
2021/04/24 06:02:21;;;;;;;16.58;6.45;;;;;;;6.80;65.89;97164.50;4947346;28;20218;-71
2021/04/24 06:04:48;;;;;;;13.50;5.85;;;;;;;6.94;65.57;97165.66;4935535;28;20274;-70
2021/04/24 06:07:15;;;;;;;22.08;5.80;;;;;;;6.72;66.92;97172.56;4927970;28;20203;-71
2021/04/24 06:09:43;;;;;;;11.90;5.47;;;;;;;6.57;66.57;97167.94;4939409;28;20226;-70
2021/04/24 06:12:10;;;;;;;12.90;6.22;;;;;;;6.48;66.78;97162.28;4946856;28;20187;-70
2021/04/24 06:14:37;;;;;;;12.93;6.47;;;;;;;6.48;66.92;97170.88;4952909;28;20222;-70
2021/04/24 06:17:05;;;;;;;12.05;5.50;;;;;;;6.65;66.04;97165.06;4945976;28;20222;-72
2021/04/24 06:19:32;;;;;;;27.40;4.85;;;;;;;6.81;66.33;97158.41;4945003;28;20249;-70
2021/04/24 06:21:59;;;;;;;11.75;5.32;;;;;;;7.09;65.75;97161.63;4941949;28;20186;-71
2021/04/24 06:24:25;;;;;;;13.68;6.05;;;;;;;7.01;63.66;97158.50;4940244;28;20227;-71
2021/04/24 06:26:52;;;;;;;15.40;5.95;;;;;;;7.11;64.05;97173.59;4950007;28;20674;-70
2021/04/24 06:29:19;;;;;;;15.55;5.75;;;;;;;7.37;63.44;97164.81;4943446;28;20238;-71
2021/04/24 06:31:46;;;;;;;21.50;7.03;;;;;;;7.49;63.12;97164.28;4940506;28;20190;-74
2021/04/24 06:34:14;;;;;;;27.75;6.53;;;;;;;7.50;62.88;97164.25;4927672;28;20690;-71
2021/04/24 06:36:42;;;;;;;30.27;6.45;;;;;;;7.59;63.30;97168.22;4946960;28;20210;-70
2021/04/24 06:39:09;;;;;;;12.07;6.72;;;;;;;7.71;63.65;97167.69;4950636;28;20234;-70
2021/04/24 06:41:37;;;;;;;14.82;6.70;;;;;;;7.89;63.76;97165.19;4946781;28;20301;-70
2021/04/24 06:44:04;;;;;;;13.20;6.03;;;;;;;7.95;64.02;97166.69;4947947;28;20227;-70
2021/04/24 06:46:31;;;;;;;10.50;6.05;;;;;;;8.09;64.81;97169.53;4944121;28;20508;-69
2021/04/24 06:48:58;;;;;;;12.07;5.47;;;;;;;8.25;64.42;97167.97;4940048;28;20242;-71
2021/04/24 06:51:26;;;;;;;12.23;5.28;;;;;;;8.38;64.09;97165.63;4945345;28;20262;-70
2021/04/24 06:53:53;;;;;;;13.00;5.97;;;;;;;8.53;63.22;97164.09;4944625;28;20698;-71
2021/04/24 06:56:21;;;;;;;12.00;5.40;;;;;;;8.77;63.12;97161.22;4953382;28;20250;-71
2021/04/24 06:58:48;;;;;;;23.85;7.93;;;;;;;9.01;62.59;97154.06;4945922;28;20226;-72
2021/04/24 07:01:15;;;;;;;12.70;5.20;;;;;;;9.31;61.01;97153.44;4944129;28;20611;-71
2021/04/24 07:03:44;;;;;;;20.17;5.23;;;;;;;9.45;60.69;97155.38;4940264;28;20944;-71
2021/04/24 07:06:13;;;;;;;13.17;5.60;;;;;;;9.70;59.20;97161.91;4956110;28;20458;-71
2021/04/24 07:08:41;;;;;;;10.63;4.77;;;;;;;10.15;58.55;97158.75;4946886;28;20815;-72
2021/04/24 07:11:09;;;;;;;14.90;5.10;;;;;;;10.46;57.84;97162.31;4950234;28;20790;-71
2021/04/24 07:13:37;;;;;;;13.83;5.70;;;;;;;10.84;57.16;97155.06;4947209;28;20485;-71
2021/04/24 07:16:06;;;;;;;12.87;4.87;;;;;;;11.33;55.21;97157.50;4947503;28;20544;-70
2021/04/24 07:18:33;;;;;;;14.30;5.23;;;;;;;11.72;54.65;97157.88;4939617;28;20466;-70
2021/04/24 07:21:01;;;;;;;10.60;5.07;;;;;;;12.32;53.09;97149.09;4948983;28;20493;-71
2021/04/24 07:23:31;;;;;;;9.93;5.00;;;;;;;13.01;52.03;97156.09;4943808;28;20897;-70
2021/04/24 07:25:59;;;;;;;17.67;5.70;;;;;;;13.80;50.76;97146.56;4942052;28;20521;-72
2021/04/24 07:28:27;;;;;;;14.30;6.10;;;;;;;14.39;49.72;97146.91;4942094;28;20525;-72
2021/04/24 07:30:54;;;;;;;13.10;5.77;;;;;;;14.83;48.19;97143.81;4946313;28;20454;-70
2021/04/24 07:33:23;;;;;;;10.00;5.47;;;;;;;15.05;47.78;97146.63;4947822;28;20813;-72
2021/04/24 07:35:50;;;;;;;17.53;7.37;;;;;;;15.09;47.02;97148.09;4949394;28;21010;-73
2021/04/24 07:38:19;;;;;;;11.17;6.00;;;;;;;15.23;46.31;97145.28;4940177;28;20836;-70
2021/04/24 07:40:46;;;;;;;13.03;6.73;;;;;;;15.29;46.24;97144.88;4948036;28;20450;-71
2021/04/24 07:43:14;;;;;;;14.70;5.40;;;;;;;15.32;46.02;97142.06;4950203;28;20528;-70
2021/04/24 07:45:42;;;;;;;23.60;6.20;;;;;;;15.62;45.56;97138.03;4943707;28;20922;-70
2021/04/24 07:48:10;;;;;;;12.87;5.67;;;;;;;15.52;44.97;97131.81;4941596;28;20750;-71
2021/04/24 07:50:38;;;;;;;12.00;6.20;;;;;;;15.30;45.77;97115.06;4943737;28;20924;-70
2021/04/24 07:53:05;;;;;;;16.30;5.90;;;;;;;15.51;44.99;97131.91;4941192;28;20443;-72
2021/04/24 07:55:32;;;;;;;19.47;6.00;;;;;;;15.39;44.88;97130.19;4937495;28;20809;-71
2021/04/24 07:57:59;;;;;;;17.30;6.27;;;;;;;15.96;44.84;97125.88;4946261;28;20817;-71
2021/04/24 08:00:27;;;;;;;18.53;6.47;;;;;;;16.08;42.97;97124.97;4942841;28;20957;-71
2021/04/24 08:02:54;;;;;;;14.80;5.23;;;;;;;16.36;44.00;97127.19;4947983;28;20471;-70
2021/04/24 08:05:21;;;;;;;19.77;6.30;;;;;;;16.50;43.08;97121.75;4947181;28;20538;-70
2021/04/24 08:08:04;;;;;;;12.50;6.23;;;;;;;16.27;43.28;97127.91;4940798;28;20432;-70
2021/04/24 08:10:31;;;;;;;11.53;5.17;;;;;;;16.77;43.59;97124.84;4940138;28;21177;-72
2021/04/24 08:12:59;;;;;;;14.70;6.00;;;;;;;17.27;42.32;97121.69;4943152;28;20746;-70
2021/04/24 08:15:27;;;;;;;22.07;6.33;;;;;;;17.00;40.46;97116.03;4944735;28;20932;-69
2021/04/24 08:17:55;;;;;;;14.80;6.00;;;;;;;17.05;40.76;97121.72;4946353;28;20434;-70
2021/04/24 08:20:22;;;;;;;19.53;7.00;;;;;;;17.08;40.74;97119.69;4940466;28;20965;-70
2021/04/24 08:22:49;;;;;;;16.73;6.70;;;;;;;17.58;40.49;97134.13;4941590;28;20770;-70
2021/04/24 08:25:16;;;;;;;24.53;8.73;;;;;;;17.71;38.80;97115.38;4938957;28;20891;-70
2021/04/24 08:27:49;;;;;;;17.37;9.70;;;;;;;17.92;39.26;97124.16;4943841;28;20502;-72
2021/04/24 08:30:17;;;;;;;15.30;6.03;;;;;;;18.24;39.39;97124.97;4947041;28;21040;-70
2021/04/24 08:32:45;;;;;;;17.60;6.70;;;;;;;18.42;39.46;97112.88;4948153;28;20946;-72
2021/04/24 08:35:13;;;;;;;11.13;6.53;;;;;;;18.70;39.21;97111.34;4950516;28;20474;-71
2021/04/24 08:37:43;;;;;;;19.43;6.33;;;;;;;18.87;37.82;97103.66;4937349;28;20446;-71
2021/04/24 08:40:13;;;;;;;13.10;6.40;;;;;;;18.97;40.14;97109.81;4943506;28;20973;-71
2021/04/24 08:42:48;;;;;;;15.13;6.50;;;;;;;18.86;36.55;97101.19;4940235;28;20437;-72
2021/04/24 08:45:17;;;;;;;8.70;5.60;;;;;;;18.36;38.63;97102.03;4949939;28;20532;-70
2021/04/24 08:47:48;;;;;;;17.20;5.97;;;;;;;18.75;40.02;97091.56;4943256;28;20465;-71
2021/04/24 08:50:17;;;;;;;13.97;6.00;;;;;;;19.22;39.07;97103.28;4949795;28;20462;-71
2021/04/24 08:52:45;;;;;;;11.17;6.10;;;;;;;19.49;36.93;97106.94;4943934;28;20961;-71
2021/04/24 08:55:18;;;;;;;11.13;6.70;;;;;;;18.70;37.20;97101.66;4939620;28;20857;-72
2021/04/24 08:57:45;;;;;;;12.43;6.40;;;;;;;18.50;37.63;97097.25;4943165;28;20457;-71
2021/04/24 09:00:15;;;;;;;14.43;7.23;;;;;;;18.62;37.09;97096.19;4944037;28;20478;-70
2021/04/24 09:02:47;;;;;;;11.87;6.97;;;;;;;18.87;36.02;97103.66;4948863;28;20470;-71
2021/04/24 09:05:16;;;;;;;11.67;6.70;;;;;;;18.25;36.68;97100.28;4945189;28;20769;-71
2021/04/24 09:07:43;;;;;;;11.77;6.40;;;;;;;18.42;37.43;97088.34;4947085;28;20983;-71
2021/04/24 09:10:16;;;;;;;16.93;7.47;;;;;;;18.55;37.36;97086.28;4946638;28;20799;-72
2021/04/24 09:12:46;;;;;;;15.33;6.60;;;;;;;18.81;36.64;97091.03;4926193;28;20826;-69
2021/04/24 09:15:17;;;;;;;18.83;6.70;;;;;;;19.30;37.25;97085.75;4947430;28;20977;-72
2021/04/24 09:17:50;;;;;;;15.27;6.30;;;;;;;19.15;37.55;97081.81;4945247;28;20801;-72
2021/04/24 09:20:18;;;;;;;14.10;5.87;;;;;;;19.71;38.87;97076.78;4921800;28;20572;-71
2021/04/24 09:22:58;;;;;;;170.53;99.73;;;;;;;20.46;37.33;97083.81;4943393;28;20814;-71
2021/04/24 09:25:36;;;;;;;23.47;7.93;;;;;;;20.26;34.30;97074.25;4937461;28;20469;-71
2021/04/24 09:28:05;;;;;;;122.67;12.90;;;;;;;19.86;35.38;97076.22;4938105;28;20826;-72
2021/04/24 09:30:34;;;;;;;11.83;5.77;;;;;;;20.29;35.79;97070.50;4944875;28;20828;-69
2021/04/24 09:33:11;;;;;;;15.00;6.40;;;;;;;19.91;34.26;97070.53;4942656;28;20975;-73
2021/04/24 09:35:47;;;;;;;16.87;7.37;;;;;;;20.15;36.11;97066.50;4940066;28;20474;-74
2021/04/24 09:38:21;;;;;;;14.27;6.87;;;;;;;20.52;35.30;97066.53;4946985;28;20449;-73
2021/04/24 09:41:09;;;;;;;16.70;7.73;;;;;;;20.49;36.55;97062.34;4942543;28;20976;-73
2021/04/24 09:43:46;;;;;;;18.73;6.90;;;;;;;20.76;37.17;97046.53;4944955;28;20987;-74
2021/04/24 09:46:15;;;;;;;19.03;7.30;;;;;;;21.12;37.38;97060.75;4942603;28;20773;-75
2021/04/24 09:48:43;;;;;;;23.80;8.80;;;;;;;21.44;35.11;97040.72;4941783;28;20455;-74
2021/04/24 09:51:14;;;;;;;12.40;7.50;;;;;;;21.65;36.42;97049.19;4944153;28;20910;-73
2021/04/24 09:53:42;;;;;;;14.73;6.90;;;;;;;21.36;36.52;97047.75;4944727;28;20893;-73
2021/04/24 09:56:13;;;;;;;11.90;7.07;;;;;;;21.72;35.97;97044.19;4940671;28;20470;-74
2021/04/24 09:58:42;;;;;;;22.10;8.07;;;;;;;21.96;35.22;97039.91;4946367;28;20462;-72
2021/04/24 10:01:21;;;;;;;12.33;7.70;;;;;;;22.11;34.78;97040.19;4940395;28;20514;-73
2021/04/24 10:03:50;;;;;;;14.70;7.47;;;;;;;22.45;36.33;97033.97;4943713;28;20519;-74
2021/04/24 10:06:26;;;;;;;14.47;7.53;;;;;;;22.74;35.21;97032.66;4945698;28;20457;-73
2021/04/24 10:09:09;;;;;;;12.83;7.57;;;;;;;22.99;32.76;97030.94;4945399;28;20952;-73
2021/04/24 10:11:38;;;;;;;49.80;23.53;;;;;;;22.63;32.91;97026.78;4939478;28;20949;-73
2021/04/24 10:14:06;;;;;;;18.70;9.70;;;;;;;22.56;33.30;97025.75;4941752;28;20953;-74
2021/04/24 10:16:38;;;;;;;15.80;8.00;;;;;;;22.87;34.25;97029.56;4937510;28;20524;-73
2021/04/24 10:19:08;;;;;;;13.77;7.40;;;;;;;23.10;34.16;97015.53;4938764;28;20489;-73
2021/04/24 10:21:35;;;;;;;17.17;8.50;;;;;;;23.74;33.51;97015.66;4938057;28;20929;-74
2021/04/24 10:24:05;;;;;;;16.13;7.47;;;;;;;23.91;33.48;97011.22;4940685;28;20481;-76
2021/04/24 10:26:32;;;;;;;17.10;8.40;;;;;;;24.05;32.13;97014.06;4942099;28;20483;-74
2021/04/24 10:29:00;;;;;;;16.30;8.73;;;;;;;24.36;32.32;97006.19;4946465;28;20715;-73
2021/04/24 10:31:28;;;;;;;15.40;7.90;;;;;;;24.28;31.00;97014.19;4938063;28;20816;-74
2021/04/24 10:33:59;;;;;;;19.27;8.23;;;;;;;22.93;31.44;97003.19;4933838;28;20831;-73
2021/04/24 10:36:26;;;;;;;17.03;9.33;;;;;;;23.33;32.22;97011.31;4941543;28;20553;-73
2021/04/24 10:39:03;;;;;;;15.27;8.37;;;;;;;23.44;32.08;97010.16;4944054;28;20493;-73
2021/04/24 10:41:34;;;;;;;23.57;8.60;;;;;;;23.36;30.77;97004.84;4942054;28;20438;-73
2021/04/24 10:44:05;;;;;;;16.80;8.60;;;;;;;23.60;30.88;97007.53;4940820;28;20793;-73
2021/04/24 10:46:36;;;;;;;21.63;8.10;;;;;;;23.30;29.36;96995.69;4944731;28;21125;-73
2021/04/24 10:49:22;;;;;;;12.33;7.50;;;;;;;23.08;31.20;97000.75;4941965;28;20877;-73
2021/04/24 10:51:59;;;;;;;16.53;8.67;;;;;;;23.19;30.98;96997.81;4939801;28;20434;-74
2021/04/24 10:54:27;;;;;;;14.50;8.07;;;;;;;23.25;31.25;97003.31;4941189;28;20606;-74
2021/04/24 10:56:55;;;;;;;24.27;8.50;;;;;;;23.09;32.39;96976.69;4940476;28;20862;-72
2021/04/24 10:59:23;;;;;;;19.97;9.20;;;;;;;23.44;32.89;96996.88;4940116;28;20932;-74
2021/04/24 11:02:05;;;;;;;17.07;8.50;;;;;;;24.06;31.96;96981.13;4944176;28;20830;-72
2021/04/24 11:04:44;;;;;;;17.03;8.40;;;;;;;24.84;33.52;96982.13;4940300;28;20862;-74
2021/04/24 11:07:24;;;;;;;66.50;35.47;;;;;;;25.01;31.78;96981.88;4943074;28;20763;-73
2021/04/24 11:10:26;;;;;;;18.43;8.50;;;;;;;25.30;30.98;96970.56;4939717;28;20446;-72
2021/04/24 11:13:00;;;;;;;22.27;9.03;;;;;;;25.22;31.95;96978.56;4941374;28;20446;-72
2021/04/24 11:15:29;;;;;;;19.60;9.63;;;;;;;25.36;30.61;96984.03;4942477;28;20521;-73
2021/04/24 11:17:57;;;;;;;26.67;10.70;;;;;;;25.72;31.66;96974.44;4947517;28;20442;-72
2021/04/24 11:20:52;;;;;;;16.33;9.57;;;;;;;26.16;30.63;96969.25;4946288;28;21059;-73
2021/04/24 11:23:58;;;;;;;24.10;9.10;;;;;;;26.27;29.75;96961.59;4948812;28;20801;-73
2021/04/24 11:26:49;;;;;;;19.10;9.40;;;;;;;25.93;28.72;96963.94;4919798;28;20791;-73
2021/04/24 11:29:34;;;;;;;14.40;9.80;;;;;;;25.20;30.80;96965.41;4921809;28;20463;-75
2021/04/24 11:32:05;;;;;;;22.73;10.40;;;;;;;25.41;30.10;96967.50;4936955;28;20467;-73
2021/04/24 11:34:45;;;;;;;20.10;10.10;;;;;;;24.26;31.58;96954.97;4945521;28;20462;-72
2021/04/24 11:37:37;;;;;;;19.80;9.03;;;;;;;25.07;31.71;96967.00;4948853;28;21098;-73
2021/04/24 11:40:30;;;;;;;18.07;9.07;;;;;;;25.52;31.17;96965.25;4941440;28;20476;-73
2021/04/24 11:43:03;;;;;;;24.67;9.97;;;;;;;25.43;30.84;96961.00;4944678;28;20755;-73